createdAt,value
2017-08-02T00:00:41.837Z,32.3
2017-08-02T00:01:38.994Z,32.3
2017-08-02T00:02:38.731Z,32.3
2017-08-02T00:03:39.413Z,32.3
2017-08-02T00:04:39.082Z,32.3
2017-08-02T00:05:44.060Z,32.3
2017-08-02T00:06:38.858Z,32.3
2017-08-02T00:07:38.914Z,32.3
2017-08-02T00:08:43.872Z,32.3
2017-08-02T00:09:44.569Z,32.3
2017-08-02T00:10:39.025Z,32.3
2017-08-02T00:11:41.918Z,32.3
2017-08-02T00:12:41.873Z,32.3
2017-08-02T00:13:44.045Z,32.3
2017-08-02T00:14:44.428Z,32.3
2017-08-02T00:15:39.478Z,32.3
2017-08-02T00:16:39.575Z,32.3
2017-08-02T00:17:44.331Z,32.3
2017-08-02T00:18:39.429Z,32.3
2017-08-02T00:19:39.786Z,32.3
2017-08-02T00:20:44.822Z,32.3
2017-08-02T00:21:40.116Z,32.3
2017-08-02T00:22:39.908Z,32.3
2017-08-02T00:23:39.977Z,32.3
2017-08-02T00:24:40.015Z,32.3
2017-08-02T00:25:44.672Z,32.3
2017-08-02T00:26:40.050Z,32.3
2017-08-02T00:27:40.802Z,32.3
2017-08-02T00:28:45.178Z,32.3
2017-08-02T00:29:39.932Z,32.3
2017-08-02T00:30:45.249Z,32.3
2017-08-02T00:31:43.244Z,32.3
2017-08-02T00:32:40.098Z,32.3
2017-08-02T00:33:40.656Z,32.2
2017-08-02T00:34:40.464Z,32.3
2017-08-02T00:35:40.234Z,32.3
2017-08-02T00:36:40.557Z,32.3
2017-08-02T00:37:40.574Z,32.3
2017-08-02T00:38:40.593Z,32.3
2017-08-02T00:39:40.613Z,32.3
2017-08-02T00:40:45.396Z,32.3
2017-08-02T00:41:40.762Z,32.2
2017-08-02T00:42:43.317Z,32.2
2017-08-02T00:43:43.735Z,32.3
2017-08-02T00:44:40.592Z,32.3
2017-08-02T00:45:45.845Z,32.3
2017-08-02T00:46:40.988Z,32.3
2017-08-02T00:47:40.697Z,32.3
2017-08-02T00:48:46.003Z,32.3
2017-08-02T00:49:43.917Z,32.3
2017-08-02T00:50:41.045Z,32.2
2017-08-02T00:51:44.331Z,32.2
2017-08-02T00:52:41.150Z,32.3
2017-08-02T00:53:44.154Z,32.3
2017-08-02T00:54:41.024Z,32.3
2017-08-02T00:55:46.308Z,32.3
2017-08-02T00:56:41.117Z,32.3
2017-08-02T00:57:41.391Z,32.2
2017-08-02T00:58:46.508Z,32.3
2017-08-02T00:59:41.324Z,32.3
2017-08-02T01:00:44.538Z,32.3
2017-08-02T01:01:44.550Z,32.2
2017-08-02T01:02:41.721Z,32.2
2017-08-02T01:03:44.895Z,32.3
2017-08-02T01:04:46.738Z,32.3
2017-08-02T01:05:46.521Z,32.3
2017-08-02T01:06:41.582Z,32.2
2017-08-02T01:07:41.639Z,32.2
2017-08-02T01:08:41.678Z,32.3
2017-08-02T01:09:45.135Z,32.3
2017-08-02T01:10:41.693Z,32.3
2017-08-02T01:11:44.585Z,32.2
2017-08-02T01:12:42.026Z,32.2
2017-08-02T01:13:41.805Z,32.2
2017-08-02T01:14:41.845Z,32.3
2017-08-02T01:15:42.406Z,32.3
2017-08-02T01:16:41.940Z,32.3
2017-08-02T01:17:42.018Z,32.2
2017-08-02T01:18:47.251Z,32.3
2017-08-02T01:19:42.404Z,32.2
2017-08-02T01:20:42.431Z,32.2
2017-08-02T01:21:47.749Z,32.2
2017-08-02T01:22:42.553Z,32.2
2017-08-02T01:23:45.456Z,32.2
2017-08-02T01:24:42.387Z,32.2
2017-08-02T01:25:42.540Z,32.2
2017-08-02T01:26:42.579Z,32.2
2017-08-02T01:27:43.499Z,32.2
2017-08-02T01:28:42.887Z,32.2
2017-08-02T01:29:46.770Z,32.2
2017-08-02T01:30:48.143Z,32.2
2017-08-02T01:31:45.405Z,32.2
2017-08-02T01:32:46.094Z,32.2
2017-08-02T01:33:48.311Z,32.2
2017-08-02T01:34:43.237Z,32.2
2017-08-02T01:35:43.128Z,32.2
2017-08-02T01:36:44.295Z,32.2
2017-08-02T01:37:46.332Z,32.2
2017-08-02T01:38:43.474Z,32.2
2017-08-02T01:39:49.266Z,32.2
2017-08-02T01:40:47.304Z,32.2
2017-08-02T01:41:43.439Z,32.2
2017-08-02T01:42:43.551Z,32.2
2017-08-02T01:43:46.146Z,32.2
2017-08-02T01:44:43.515Z,32.2
2017-08-02T01:45:48.623Z,32.2
2017-08-02T01:46:43.680Z,32.2
2017-08-02T01:47:43.621Z,32.2
2017-08-02T01:48:43.703Z,32.2
2017-08-02T01:49:43.846Z,32.2
2017-08-02T01:50:43.515Z,32.2
2017-08-02T01:51:44.923Z,32.2
2017-08-02T01:52:43.672Z,32.2
2017-08-02T01:53:46.954Z,32.2
2017-08-02T01:54:47.071Z,32.2
2017-08-02T01:55:50.336Z,32.2
2017-08-02T01:56:49.217Z,32.2
2017-08-02T01:57:44.193Z,32.2
2017-08-02T01:58:44.056Z,32.2
2017-08-02T01:59:49.358Z,32.2
2017-08-02T02:00:44.492Z,32.2
2017-08-02T02:01:44.191Z,32.2
2017-08-02T02:02:44.218Z,32.2
2017-08-02T02:03:46.836Z,32.2
2017-08-02T02:04:47.212Z,32.2
2017-08-02T02:05:49.355Z,32.2
2017-08-02T02:06:44.461Z,32.2
2017-08-02T02:07:49.915Z,32.2
2017-08-02T02:08:44.681Z,32.2
2017-08-02T02:09:45.259Z,32.2
2017-08-02T02:10:47.924Z,32.2
2017-08-02T02:11:50.096Z,32.2
2017-08-02T02:12:47.989Z,32.2
2017-08-02T02:13:50.170Z,32.2
2017-08-02T02:14:49.908Z,32.2
2017-08-02T02:15:48.553Z,32.2
2017-08-02T02:16:48.333Z,32.2
2017-08-02T02:17:50.565Z,32.2
2017-08-02T02:18:45.281Z,32.2
2017-08-02T02:19:48.021Z,32.2
2017-08-02T02:20:48.138Z,32.2
2017-08-02T02:21:50.921Z,32.2
2017-08-02T02:22:45.628Z,32.2
2017-08-02T02:23:50.352Z,32.2
2017-08-02T02:24:48.233Z,32.2
2017-08-02T02:25:45.452Z,32.2
2017-08-02T02:26:48.730Z,32.2
2017-08-02T02:27:45.885Z,32.2
2017-08-02T02:28:48.663Z,32.2
2017-08-02T02:29:46.079Z,32.2
2017-08-02T02:30:48.698Z,32.2
2017-08-02T02:31:45.859Z,32.2
2017-08-02T02:32:51.192Z,32.2
2017-08-02T02:33:46.222Z,32.2
2017-08-02T02:34:49.174Z,32.2
2017-08-02T02:35:46.041Z,32.2
2017-08-02T02:36:46.389Z,32.2
2017-08-02T02:37:51.430Z,32.2
2017-08-02T02:38:49.423Z,32.2
2017-08-02T02:39:51.633Z,32.2
2017-08-02T02:40:46.368Z,32.2
2017-08-02T02:41:50.135Z,32.2
2017-08-02T02:42:46.479Z,32.2
2017-08-02T02:43:51.773Z,32.2
2017-08-02T02:44:46.618Z,32.2
2017-08-02T02:45:49.712Z,32.2
2017-08-02T02:46:46.640Z,32.2
2017-08-02T02:47:46.879Z,32.2
2017-08-02T02:48:51.908Z,32.2
2017-08-02T02:49:46.677Z,32.2
2017-08-02T02:50:50.045Z,32.2
2017-08-02T02:51:52.447Z,32.1
2017-08-02T02:52:51.953Z,32.1
2017-08-02T02:53:52.063Z,32.1
2017-08-02T02:54:47.321Z,32.2
2017-08-02T02:55:52.349Z,32.2
2017-08-02T02:56:52.741Z,32.2
2017-08-02T02:57:52.096Z,32.2
2017-08-02T02:58:49.978Z,32.1
2017-08-02T02:59:52.659Z,32.1
2017-08-02T03:00:50.597Z,32.2
2017-08-02T03:01:47.712Z,32.2
2017-08-02T03:02:48.058Z,32.2
2017-08-02T03:03:47.724Z,32.2
2017-08-02T03:04:50.373Z,32.2
2017-08-02T03:05:47.760Z,32.2
2017-08-02T03:06:47.737Z,32.2
2017-08-02T03:07:47.921Z,32.2
2017-08-02T03:08:48.052Z,32.2
2017-08-02T03:09:47.998Z,32.2
2017-08-02T03:10:48.284Z,32.2
2017-08-02T03:11:48.115Z,32.1
2017-08-02T03:12:52.747Z,32.1
2017-08-02T03:13:47.855Z,32.2
2017-08-02T03:14:48.118Z,32.2
2017-08-02T03:15:53.020Z,32.2
2017-08-02T03:16:47.937Z,32.1
2017-08-02T03:17:51.185Z,32.2
2017-08-02T03:18:48.092Z,32.2
2017-08-02T03:19:48.385Z,32.2
2017-08-02T03:20:48.310Z,32.2
2017-08-02T03:21:48.111Z,32.2
2017-08-02T03:22:48.245Z,32.2
2017-08-02T03:23:51.096Z,32.1
2017-08-02T03:24:48.294Z,32.1
2017-08-02T03:25:48.623Z,32.2
2017-08-02T03:26:48.990Z,32.2
2017-08-02T03:27:48.410Z,32.1
2017-08-02T03:28:48.433Z,32.2
2017-08-02T03:29:53.393Z,32.2
2017-08-02T03:30:48.838Z,32.2
2017-08-02T03:31:48.904Z,32.2
2017-08-02T03:32:49.236Z,32.2
2017-08-02T03:33:48.748Z,32.2
2017-08-02T03:34:49.123Z,32.1
2017-08-02T03:35:52.034Z,32.1
2017-08-02T03:36:51.765Z,32.1
2017-08-02T03:37:53.995Z,32.1
2017-08-02T03:38:52.117Z,32.2
2017-08-02T03:39:54.345Z,32.1
2017-08-02T03:40:49.081Z,32.1
2017-08-02T03:41:54.065Z,32.2
2017-08-02T03:42:49.177Z,32.1
2017-08-02T03:43:54.264Z,32.1
2017-08-02T03:44:54.937Z,32.1
2017-08-02T03:45:49.431Z,32.1
2017-08-02T03:46:49.758Z,32.1
2017-08-02T03:47:49.530Z,32.1
2017-08-02T03:48:49.607Z,32.1
2017-08-02T03:49:52.545Z,32.2
2017-08-02T03:50:50.116Z,32.1
2017-08-02T03:51:49.846Z,32.1
2017-08-02T03:52:52.699Z,32.1
2017-08-02T03:53:54.904Z,32.1
2017-08-02T03:54:53.148Z,32.1
2017-08-02T03:55:52.911Z,32.1
2017-08-02T03:56:53.253Z,32.1
2017-08-02T03:57:50.457Z,32.1
2017-08-02T03:58:53.095Z,32.1
2017-08-02T03:59:55.570Z,32.1
2017-08-02T04:00:50.692Z,32.1
2017-08-02T04:01:55.674Z,32.1
2017-08-02T04:02:51.084Z,32.1
2017-08-02T04:03:53.459Z,32.1
2017-08-02T04:04:55.866Z,32.1
2017-08-02T04:05:53.851Z,32.1
2017-08-02T04:06:56.040Z,32.1
2017-08-02T04:07:50.793Z,32.1
2017-08-02T04:08:51.375Z,32.1
2017-08-02T04:09:55.773Z,32.1
2017-08-02T04:10:53.665Z,32.1
2017-08-02T04:11:51.184Z,32.1
2017-08-02T04:12:55.914Z,32.1
2017-08-02T04:13:51.281Z,32.1
2017-08-02T04:14:56.234Z,32.1
2017-08-02T04:15:51.040Z,32.1
2017-08-02T04:16:55.984Z,32.1
2017-08-02T04:17:53.978Z,32.1
2017-08-02T04:18:56.496Z,32.1
2017-08-02T04:19:56.527Z,32.1
2017-08-02T04:20:51.550Z,32.1
2017-08-02T04:21:51.582Z,32.1
2017-08-02T04:22:51.367Z,32.1
2017-08-02T04:23:56.642Z,32.1
2017-08-02T04:24:51.757Z,32.1
2017-08-02T04:25:56.842Z,32.1
2017-08-02T04:26:56.931Z,32.1
2017-08-02T04:27:51.727Z,32.1
2017-08-02T04:28:54.564Z,32.2
2017-08-02T04:29:52.109Z,32.2
2017-08-02T04:30:52.143Z,32
2017-08-02T04:31:52.255Z,31.2
2017-08-02T04:32:57.261Z,30.3
2017-08-02T04:33:55.262Z,29.4
2017-08-02T04:34:52.062Z,28.6
2017-08-02T04:35:52.496Z,27.8
2017-08-02T04:36:52.521Z,27.1
2017-08-02T04:37:52.294Z,26.6
2017-08-02T04:38:52.681Z,26.1
2017-08-02T04:39:57.722Z,25.7
2017-08-02T04:40:55.480Z,25.3
2017-08-02T04:41:55.803Z,25
2017-08-02T04:42:55.486Z,24.7
2017-08-02T04:43:55.876Z,24.5
2017-08-02T04:44:55.562Z,24.3
2017-08-02T04:45:58.083Z,24.1
2017-08-02T04:46:57.802Z,23.9
2017-08-02T04:47:52.909Z,23.8
2017-08-02T04:48:55.740Z,23.7
2017-08-02T04:49:55.788Z,23.6
2017-08-02T04:50:57.400Z,23.6
2017-08-02T04:51:58.334Z,23.5
2017-08-02T04:52:56.499Z,23.4
2017-08-02T04:53:55.960Z,23.4
2017-08-02T04:54:53.520Z,23.5
2017-08-02T04:55:58.457Z,23.5
2017-08-02T04:56:53.561Z,23.5
2017-08-02T04:57:53.350Z,23.5
2017-08-02T04:58:53.705Z,23.6
2017-08-02T04:59:53.497Z,23.6
2017-08-02T05:00:53.596Z,23.6
2017-08-02T05:01:56.444Z,23.6
2017-08-02T05:02:54.765Z,23.6
2017-08-02T05:03:58.725Z,23.6
2017-08-02T05:04:59.109Z,23.9
2017-08-02T05:05:59.177Z,24.3
2017-08-02T05:06:53.892Z,24.7
2017-08-02T05:07:57.089Z,25
2017-08-02T05:08:53.920Z,25.4
2017-08-02T05:09:54.230Z,25.6
2017-08-02T05:10:59.213Z,25.9
2017-08-02T05:11:54.026Z,26.1
2017-08-02T05:12:56.930Z,26.3
2017-08-02T05:13:54.341Z,26.5
2017-08-02T05:14:59.143Z,26.6
2017-08-02T05:15:59.195Z,26.7
2017-08-02T05:16:54.598Z,26.8
2017-08-02T05:17:54.593Z,26.9
2017-08-02T05:18:54.384Z,27
2017-08-02T05:19:54.477Z,27.1
2017-08-02T05:20:57.337Z,27.2
2017-08-02T05:21:54.543Z,27.2
2017-08-02T05:22:54.531Z,27.3
2017-08-02T05:23:54.959Z,27.4
2017-08-02T05:24:54.731Z,27.4
2017-08-02T05:25:57.599Z,27.5
2017-08-02T05:26:54.866Z,27.5
2017-08-02T05:27:55.214Z,27.6
2017-08-02T05:28:55.282Z,27.7
2017-08-02T05:29:57.850Z,27.7
2017-08-02T05:31:00.660Z,27.8
2017-08-02T05:32:03.625Z,27.8
2017-08-02T05:33:08.637Z,27.8
2017-08-02T05:33:55.222Z,27.9
2017-08-02T05:34:58.087Z,28.1
2017-08-02T05:35:59.539Z,28.3
2017-08-02T05:36:58.233Z,28.3
2017-08-02T05:37:57.457Z,28.4
2017-08-02T05:38:56.767Z,28.5
2017-08-02T05:39:56.172Z,28.6
2017-08-02T05:41:02.128Z,28.7
2017-08-02T05:41:58.794Z,28.8
2017-08-02T05:42:59.278Z,28.8
2017-08-02T05:43:56.039Z,28.9
2017-08-02T05:44:56.185Z,28.9
2017-08-02T05:46:01.103Z,29
2017-08-02T05:46:56.097Z,29.1
2017-08-02T05:48:01.194Z,29.1
2017-08-02T05:48:56.280Z,29.2
2017-08-02T05:49:56.073Z,29.2
2017-08-02T05:50:56.355Z,29.3
2017-08-02T05:51:56.354Z,29.3
2017-08-02T05:52:56.457Z,29.4
2017-08-02T05:53:56.557Z,29.4
2017-08-02T05:55:01.513Z,29.4
2017-08-02T05:55:56.232Z,29.5
2017-08-02T05:56:56.353Z,29.5
2017-08-02T05:58:01.337Z,29.5
2017-08-02T05:58:56.746Z,29.5
2017-08-02T06:00:01.725Z,29.5
2017-08-02T06:00:59.962Z,29.5
2017-08-02T06:01:56.858Z,29.5
2017-08-02T06:02:56.965Z,29.6
2017-08-02T06:03:59.891Z,29.6
2017-08-02T06:05:01.712Z,29.7
2017-08-02T06:05:59.803Z,29.8
2017-08-02T06:06:57.524Z,29.8
2017-08-02T06:07:57.172Z,29.8
2017-08-02T06:08:57.335Z,29.7
2017-08-02T06:09:57.311Z,29.7
2017-08-02T06:10:57.339Z,29.7
2017-08-02T06:11:57.125Z,29.8
2017-08-02T06:13:00.005Z,29.8
2017-08-02T06:14:00.028Z,29.9
2017-08-02T06:14:57.523Z,29.9
2017-08-02T06:16:00.057Z,30
2017-08-02T06:17:02.605Z,30.1
2017-08-02T06:18:00.292Z,30.1
2017-08-02T06:19:01.343Z,30.2
2017-08-02T06:20:00.666Z,30.2
2017-08-02T06:20:57.540Z,30.3
2017-08-02T06:22:02.534Z,30.3
2017-08-02T06:22:58.284Z,30.3
2017-08-02T06:23:58.369Z,30.4
2017-08-02T06:25:03.799Z,30.4
2017-08-02T06:26:01.422Z,30.4
2017-08-02T06:26:58.217Z,30.5
2017-08-02T06:27:58.284Z,30.5
2017-08-02T06:28:58.032Z,30.4
2017-08-02T06:29:58.071Z,30.5
2017-08-02T06:31:03.077Z,30.5
2017-08-02T06:31:58.458Z,30.5
2017-08-02T06:32:58.197Z,30.5
2017-08-02T06:33:58.314Z,30.5
2017-08-02T06:35:01.157Z,30.6
2017-08-02T06:36:02.168Z,30.6
2017-08-02T06:37:03.445Z,30.7
2017-08-02T06:37:58.791Z,30.7
2017-08-02T06:38:58.823Z,30.8
2017-08-02T06:40:01.490Z,30.8
2017-08-02T06:40:59.975Z,30.8
2017-08-02T06:42:08.627Z,30.8
2017-08-02T06:43:07.774Z,30.8
2017-08-02T06:44:03.777Z,30.8
2017-08-02T06:45:04.399Z,30.8
2017-08-02T06:46:03.206Z,30.8
2017-08-02T06:47:04.440Z,30.8
2017-08-02T06:47:59.019Z,30.9
2017-08-02T06:49:03.998Z,30.9
2017-08-02T06:50:02.528Z,30.8
2017-08-02T06:50:59.474Z,30.8
2017-08-02T06:52:04.535Z,30.8
2017-08-02T06:53:02.095Z,30.9
2017-08-02T06:53:59.566Z,30.9
2017-08-02T06:55:04.291Z,31
2017-08-02T06:55:59.406Z,31
2017-08-02T06:57:02.689Z,31
2017-08-02T06:58:01.366Z,31
2017-08-02T06:58:59.858Z,31.1
2017-08-02T07:00:02.756Z,31.1
2017-08-02T07:01:05.701Z,31
2017-08-02T07:01:59.690Z,31
2017-08-02T07:03:03.561Z,31
2017-08-02T07:03:59.731Z,31
2017-08-02T07:05:00.063Z,31
2017-08-02T07:05:59.847Z,31
2017-08-02T07:07:02.491Z,31
2017-08-02T07:08:03.489Z,31
2017-08-02T07:09:03.100Z,31
2017-08-02T07:10:03.454Z,30.9
2017-08-02T07:11:03.192Z,30.9
2017-08-02T07:12:05.021Z,30.9
2017-08-02T07:13:00.375Z,30.9
2017-08-02T07:14:03.296Z,30.8
2017-08-02T07:15:00.175Z,30.8
2017-08-02T07:16:05.792Z,30.7
2017-08-02T07:17:00.309Z,30.7
2017-08-02T07:18:05.334Z,30.7
2017-08-02T07:19:00.461Z,30.7
2017-08-02T07:20:05.485Z,30.7
2017-08-02T07:21:00.879Z,30.8
2017-08-02T07:22:03.524Z,30.8
2017-08-02T07:23:00.621Z,30.9
2017-08-02T07:24:06.622Z,31
2017-08-02T07:25:00.687Z,31
2017-08-02T07:26:01.431Z,31.2
2017-08-02T07:27:08.322Z,31.3
2017-08-02T07:28:06.178Z,31.4
2017-08-02T07:29:07.298Z,31.4
2017-08-02T07:30:04.167Z,31.5
2017-08-02T07:31:01.712Z,31.6
2017-08-02T07:32:04.755Z,31.6
2017-08-02T07:33:04.356Z,31.6
2017-08-02T07:34:04.110Z,31.6
2017-08-02T07:35:01.360Z,31.6
2017-08-02T07:36:01.325Z,31.6
2017-08-02T07:37:06.417Z,31.7
2017-08-02T07:38:04.812Z,31.8
2017-08-02T07:39:01.892Z,31.9
2017-08-02T07:40:04.863Z,31.8
2017-08-02T07:41:01.944Z,31.9
2017-08-02T07:42:02.641Z,31.9
2017-08-02T07:43:04.941Z,31.9
2017-08-02T07:44:06.765Z,31.9
2017-08-02T07:45:05.169Z,32
2017-08-02T07:46:02.324Z,32
2017-08-02T07:47:02.180Z,32
2017-08-02T07:48:02.260Z,32.1
2017-08-02T07:49:07.894Z,32.1
2017-08-02T07:50:02.773Z,32
2017-08-02T07:51:02.484Z,32.1
2017-08-02T07:52:07.454Z,32.1
2017-08-02T07:53:04.549Z,32.1
2017-08-02T07:54:03.217Z,32.1
2017-08-02T07:55:08.244Z,32.1
2017-08-02T07:56:03.985Z,32.1
2017-08-02T07:57:05.629Z,32.1
2017-08-02T07:58:02.856Z,32.1
2017-08-02T07:59:03.548Z,32.1
2017-08-02T08:00:02.907Z,32.3
2017-08-02T08:01:03.339Z,32.3
2017-08-02T08:02:03.263Z,32.4
2017-08-02T08:03:06.362Z,32.4
2017-08-02T08:04:02.847Z,32.5
2017-08-02T08:05:06.175Z,32.5
2017-08-02T08:06:08.604Z,32.5
2017-08-02T08:07:06.209Z,32.6
2017-08-02T08:08:08.063Z,32.6
2017-08-02T08:09:05.969Z,32.6
2017-08-02T08:10:08.513Z,32.6
2017-08-02T08:11:08.615Z,32.6
2017-08-02T08:12:06.470Z,32.5
2017-08-02T08:13:03.736Z,32.5
2017-08-02T08:14:03.772Z,32.4
2017-08-02T08:15:07.553Z,32.4
2017-08-02T08:16:06.700Z,32.4
2017-08-02T08:17:09.062Z,32.4
2017-08-02T08:18:08.966Z,32.4
2017-08-02T08:19:03.663Z,32.4
2017-08-02T08:20:06.460Z,32.4
2017-08-02T08:21:03.943Z,32.4
2017-08-02T08:22:09.611Z,32.5
2017-08-02T08:23:08.740Z,32.5
2017-08-02T08:24:07.021Z,32.6
2017-08-02T08:25:07.204Z,32.6
2017-08-02T08:26:05.597Z,32.6
2017-08-02T08:27:08.926Z,32.6
2017-08-02T08:28:04.975Z,32.6
2017-08-02T08:29:09.550Z,32.5
2017-08-02T08:30:04.537Z,32.5
2017-08-02T08:31:04.322Z,32.5
2017-08-02T08:32:04.908Z,32.4
2017-08-02T08:33:09.145Z,32.4
2017-08-02T08:34:04.481Z,32.5
2017-08-02T08:35:04.573Z,32.4
2017-08-02T08:36:07.737Z,32.4
2017-08-02T08:37:04.649Z,32.4
2017-08-02T08:38:05.657Z,32.5
2017-08-02T08:39:08.416Z,32.5
2017-08-02T08:40:05.497Z,32.5
2017-08-02T08:41:05.181Z,32.5
2017-08-02T08:42:07.414Z,32.5
2017-08-02T08:43:05.570Z,32.4
2017-08-02T08:44:05.472Z,32.4
2017-08-02T08:45:05.035Z,32.3
2017-08-02T08:46:09.523Z,32.3
2017-08-02T08:47:04.843Z,32.3
2017-08-02T08:48:06.219Z,32.2
2017-08-02T08:49:08.513Z,32.2
2017-08-02T08:52:10.364Z,32.2
2017-08-02T08:53:09.440Z,32.2
2017-08-02T08:54:05.561Z,32.2
2017-08-02T08:58:06.386Z,32.1
2017-08-02T09:00:18.541Z,32.1
2017-08-02T09:04:36.858Z,32
2017-08-02T09:05:36.121Z,32
2017-08-02T09:06:35.895Z,32.1
2017-08-02T09:07:34.151Z,32.1
2017-08-02T09:08:34.464Z,32.1
2017-08-02T09:09:33.718Z,32
2017-08-02T09:10:33.729Z,32.2
2017-08-02T09:11:37.098Z,32.1
2017-08-02T09:12:37.849Z,32.1
2017-08-02T09:13:37.138Z,32.2
2017-08-02T09:14:38.949Z,32.2
2017-08-02T09:15:35.783Z,32.2
2017-08-02T09:16:34.664Z,32.3
2017-08-02T09:17:35.137Z,32.3
2017-08-02T09:18:38.333Z,32.3
2017-08-02T09:19:39.348Z,32.3
2017-08-02T09:20:36.806Z,32.3
2017-08-02T09:21:37.280Z,32.3
2017-08-02T09:22:39.490Z,32.3
2017-08-02T09:23:39.271Z,32.2
2017-08-02T09:24:37.240Z,32.3
2017-08-02T09:25:40.053Z,32.3
2017-08-02T09:26:39.568Z,32.3
2017-08-02T09:27:37.371Z,32.2
2017-08-02T09:28:40.284Z,32.3
2017-08-02T09:29:38.348Z,32.3
2017-08-02T09:30:35.830Z,32.3
2017-08-02T09:31:34.725Z,32.2
2017-08-02T09:32:41.424Z,32.3
2017-08-02T09:33:34.864Z,32.3
2017-08-02T09:34:34.840Z,32.2
2017-08-02T09:35:41.475Z,32.2
2017-08-02T09:36:38.521Z,32.2
2017-08-02T09:37:38.216Z,32.2
2017-08-02T09:38:41.745Z,32.2
2017-08-02T09:39:35.982Z,32.3
2017-08-02T09:40:37.932Z,32.2
2017-08-02T09:41:38.919Z,32.2
2017-08-02T09:42:44.585Z,32.3
2017-08-02T09:43:38.237Z,32.3
2017-08-02T09:44:40.326Z,32.2
2017-08-02T09:45:36.394Z,32.2
2017-08-02T09:46:39.855Z,32.2
2017-08-02T09:47:35.485Z,32.3
2017-08-02T09:48:36.071Z,32.3
2017-08-02T09:49:35.950Z,32.3
2017-08-02T09:50:35.916Z,32.3
2017-08-02T09:51:35.987Z,32.3
2017-08-02T09:52:36.786Z,32.3
2017-08-02T09:53:38.874Z,32.4
2017-08-02T09:54:42.553Z,32.4
2017-08-02T09:55:35.991Z,32.4
2017-08-02T09:56:42.020Z,32.4
2017-08-02T09:57:38.899Z,32.4
2017-08-02T09:58:39.770Z,32.4
2017-08-02T09:59:36.484Z,32.4
2017-08-02T10:00:36.296Z,32.4
2017-08-02T10:01:37.112Z,32.5
2017-08-02T10:02:36.716Z,32.5
2017-08-02T10:03:43.234Z,32.5
2017-08-02T10:04:37.057Z,32.5
2017-08-02T10:05:39.700Z,32.5
2017-08-02T10:06:43.051Z,32.6
2017-08-02T10:07:43.961Z,32.6
2017-08-02T10:08:40.463Z,32.6
2017-08-02T10:09:42.679Z,32.7
2017-08-02T10:10:37.829Z,32.7
2017-08-02T10:11:41.916Z,32.7
2017-08-02T10:12:37.196Z,32.7
2017-08-02T10:13:42.994Z,32.7
2017-08-02T10:14:37.737Z,32.7
2017-08-02T10:15:37.333Z,32.8
2017-08-02T10:16:41.251Z,32.8
2017-08-02T10:17:40.677Z,32.8
2017-08-02T10:18:42.450Z,32.8
2017-08-02T10:19:42.920Z,32.8
2017-08-02T10:20:42.968Z,32.8
2017-08-02T10:21:42.840Z,32.8
2017-08-02T10:22:40.807Z,32.8
2017-08-02T10:23:45.415Z,32.8
2017-08-02T10:24:43.885Z,32.8
2017-08-02T10:25:40.707Z,32.8
2017-08-02T10:26:39.027Z,32.8
2017-08-02T10:27:38.800Z,32.9
2017-08-02T10:28:39.774Z,32.9
2017-08-02T10:29:44.359Z,32.9
2017-08-02T10:30:38.195Z,32.9
2017-08-02T10:31:42.913Z,32.9
2017-08-02T10:32:42.841Z,33
2017-08-02T10:33:43.401Z,33
2017-08-02T10:34:40.465Z,33
2017-08-02T10:35:43.751Z,32.9
2017-08-02T10:36:38.629Z,33.1
2017-08-02T10:37:38.371Z,33
2017-08-02T10:38:38.743Z,33.1
2017-08-02T10:39:39.380Z,33.1
2017-08-02T10:40:41.372Z,33.1
2017-08-02T10:41:38.153Z,33.1
2017-08-02T10:42:39.419Z,33
2017-08-02T10:43:41.459Z,33
2017-08-02T10:44:38.250Z,33
2017-08-02T10:45:42.225Z,33
2017-08-02T10:46:41.462Z,33
2017-08-02T10:47:38.647Z,33
2017-08-02T10:48:44.037Z,33
2017-08-02T10:49:38.800Z,33
2017-08-02T10:50:38.909Z,33
2017-08-02T10:51:41.486Z,33
2017-08-02T10:52:44.773Z,33.1
2017-08-02T10:53:44.731Z,33.1
2017-08-02T10:54:38.902Z,33
2017-08-02T10:55:39.507Z,33.1
2017-08-02T10:56:39.064Z,33.1
2017-08-02T10:57:40.636Z,33.1
2017-08-02T10:58:41.741Z,33.1
2017-08-02T10:59:39.194Z,33.1
2017-08-02T11:00:39.587Z,33
2017-08-02T11:01:39.318Z,33
2017-08-02T11:02:39.414Z,33
2017-08-02T11:03:44.458Z,33.1
2017-08-02T11:04:42.096Z,33
2017-08-02T11:05:40.011Z,33
2017-08-02T11:06:41.492Z,33
2017-08-02T11:07:39.870Z,33.1
2017-08-02T11:08:39.832Z,33
2017-08-02T11:09:40.627Z,33
2017-08-02T11:10:39.952Z,33
2017-08-02T11:11:40.057Z,33
2017-08-02T11:12:45.413Z,33
2017-08-02T11:13:46.238Z,33
2017-08-02T11:14:40.691Z,33
2017-08-02T11:15:40.257Z,33
2017-08-02T11:16:40.366Z,33
2017-08-02T11:17:40.075Z,33
2017-08-02T11:18:45.423Z,33
2017-08-02T11:19:40.141Z,32.9
2017-08-02T11:20:44.241Z,32.9
2017-08-02T11:21:40.482Z,32.8
2017-08-02T11:22:40.185Z,32.8
2017-08-02T11:23:40.792Z,32.7
2017-08-02T11:24:40.604Z,32.8
2017-08-02T11:25:41.239Z,32.8
2017-08-02T11:26:41.542Z,32.8
2017-08-02T11:27:42.630Z,32.8
2017-08-02T11:28:41.085Z,32.8
2017-08-02T11:29:41.732Z,32.8
2017-08-02T11:30:40.666Z,32.8
2017-08-02T11:31:47.117Z,32.8
2017-08-02T11:32:45.662Z,32.8
2017-08-02T11:33:43.949Z,32.8
2017-08-02T11:34:41.181Z,32.9
2017-08-02T11:35:44.444Z,32.9
2017-08-02T11:36:46.266Z,32.9
2017-08-02T11:37:44.254Z,32.9
2017-08-02T11:38:41.411Z,33
2017-08-02T11:39:44.285Z,33
2017-08-02T11:40:44.477Z,33
2017-08-02T11:41:42.203Z,33
2017-08-02T11:42:42.353Z,33
2017-08-02T11:43:44.628Z,33
2017-08-02T11:44:41.679Z,33.1
2017-08-02T11:45:45.237Z,33.1
2017-08-02T11:46:42.227Z,33.1
2017-08-02T11:47:46.182Z,33.1
2017-08-02T11:48:42.838Z,33.1
2017-08-02T11:49:46.676Z,33.1
2017-08-02T11:50:42.712Z,33.2
2017-08-02T11:51:46.697Z,33.2
2017-08-02T11:52:42.010Z,33.2
2017-08-02T11:53:46.356Z,33.2
2017-08-02T11:54:43.050Z,33.3
2017-08-02T11:55:42.733Z,33.2
2017-08-02T11:56:48.610Z,33.3
2017-08-02T11:57:47.811Z,33.3
2017-08-02T11:58:46.601Z,33.2
2017-08-02T11:59:47.928Z,33.3
2017-08-02T12:00:45.487Z,33.3
2017-08-02T12:01:42.491Z,33.3
2017-08-02T12:02:45.533Z,33.3
2017-08-02T12:03:43.183Z,33.2
2017-08-02T12:04:47.875Z,33.2
2017-08-02T12:05:43.296Z,33.2
2017-08-02T12:06:42.534Z,33.3
2017-08-02T12:07:43.388Z,33.3
2017-08-02T12:08:43.482Z,33.4
2017-08-02T12:09:43.644Z,33.4
2017-08-02T12:10:49.115Z,33.4
2017-08-02T12:11:46.705Z,33.4
2017-08-02T12:12:48.587Z,33.4
2017-08-02T12:13:45.702Z,33.4
2017-08-02T12:14:43.737Z,33.4
2017-08-02T12:15:42.944Z,33.4
2017-08-02T12:16:43.430Z,33.3
2017-08-02T12:17:43.349Z,33.3
2017-08-02T12:18:44.227Z,33.3
2017-08-02T12:19:45.212Z,33.2
2017-08-02T12:20:44.321Z,33.2
2017-08-02T12:21:43.331Z,33.2
2017-08-02T12:22:43.568Z,33.3
2017-08-02T12:23:44.450Z,33.3
2017-08-02T12:24:48.629Z,33.2
2017-08-02T12:25:47.702Z,33.3
2017-08-02T12:26:45.732Z,33.3
2017-08-02T12:27:50.997Z,33.2
2017-08-02T12:28:49.900Z,33.3
2017-08-02T12:29:44.962Z,33.2
2017-08-02T12:30:48.872Z,33.2
2017-08-02T12:31:45.412Z,33.2
2017-08-02T12:32:46.580Z,33.2
2017-08-02T12:33:47.413Z,33.3
2017-08-02T12:34:44.750Z,33.3
2017-08-02T12:35:49.249Z,33.3
2017-08-02T12:36:49.876Z,33.3
2017-08-02T12:37:49.709Z,33.3
2017-08-02T12:38:52.219Z,33.3
2017-08-02T12:39:46.970Z,33.3
2017-08-02T12:40:49.463Z,33.3
2017-08-02T12:41:45.565Z,33.3
2017-08-02T12:42:46.114Z,33.2
2017-08-02T12:43:44.829Z,33.2
2017-08-02T12:44:44.347Z,33.2
2017-08-02T12:45:49.686Z,33.2
2017-08-02T12:46:47.454Z,33.1
2017-08-02T12:47:45.219Z,33.1
2017-08-02T12:48:47.135Z,33.1
2017-08-02T12:49:49.713Z,33.1
2017-08-02T12:50:56.287Z,33
2017-08-02T12:51:45.759Z,33
2017-08-02T12:52:49.775Z,33.1
2017-08-02T12:53:45.213Z,33.1
2017-08-02T12:54:55.095Z,33
2017-08-02T12:55:56.642Z,33.1
2017-08-02T12:56:49.244Z,33.1
2017-08-02T12:57:49.996Z,33.1
2017-08-02T12:58:45.887Z,33.2
2017-08-02T12:59:46.168Z,33.2
2017-08-02T13:00:50.418Z,33.2
2017-08-02T13:01:45.504Z,33.2
2017-08-02T13:02:48.486Z,33.2
2017-08-02T13:03:45.651Z,33.1
2017-08-02T13:04:46.663Z,33.1
2017-08-02T13:05:48.412Z,33.1
2017-08-02T13:06:45.786Z,33.1
2017-08-02T13:07:45.792Z,33.1
2017-08-02T13:08:48.857Z,33.1
2017-08-02T13:09:50.956Z,33.1
2017-08-02T13:10:48.947Z,33.1
2017-08-02T13:11:45.724Z,33.2
2017-08-02T13:12:45.939Z,33.1
2017-08-02T13:13:45.774Z,33.2
2017-08-02T13:14:50.039Z,33.2
2017-08-02T13:15:47.639Z,33.1
2017-08-02T13:16:51.613Z,33.1
2017-08-02T13:17:46.384Z,33.1
2017-08-02T13:18:49.266Z,33
2017-08-02T13:19:49.472Z,33
2017-08-02T13:20:51.491Z,33
2017-08-02T13:21:48.830Z,33
2017-08-02T13:22:52.164Z,33
2017-08-02T13:23:51.582Z,33
2017-08-02T13:24:51.477Z,33
2017-08-02T13:25:47.478Z,32.9
2017-08-02T13:26:52.044Z,32.9
2017-08-02T13:27:50.013Z,32.9
2017-08-02T13:28:51.079Z,32.8
2017-08-02T13:29:46.995Z,32.8
2017-08-02T13:30:50.418Z,32.8
2017-08-02T13:31:48.001Z,32.8
2017-08-02T13:32:49.280Z,32.8
2017-08-02T13:33:51.735Z,32.8